Shildon, United Kingdom
Current Conditions -  °F | °C
As of 4:50 PM on Sunday 21 Dec 2014 (Local Time) from EGNV Reporting Station
Rain Showers Rain Showers  
Wind Chill: 52°   Ceiling: 2100
Heat Index: 52°   Visibility: 6mi
Dew Point: 46°   Wind: 18mph
Humidity: 82%   Direction: 210°SSW
Pressure: 29.85"   Gusts: NA
Location:  54.63°N, 1.64°W
Report Text: EGNV 211650Z 21016KT 9000 -SHRA FEW011 BKN021 11/08 Q1011
Loading
Personal Weather Stations






























Interactive Weather Map New forecast layout! Learn more

10-Day Weather Forecast

Advertisements
Track Severe Weather on mobile